sensor_id;sensor_type;location;lat;lon;timestamp;P1;durP1;ratioP1;P2;durP2;ratioP2
12556;SDS011;6344;49.932;8.308;2023-04-06T00:01:53;13.07;;;11.77;;
12556;SDS011;6344;49.932;8.308;2023-04-06T00:04:20;16.97;;;12.00;;
12556;SDS011;6344;49.932;8.308;2023-04-06T00:06:46;13.47;;;12.10;;
12556;SDS011;6344;49.932;8.308;2023-04-06T00:09:13;13.52;;;12.18;;
12556;SDS011;6344;49.932;8.308;2023-04-06T00:11:39;13.07;;;11.73;;
12556;SDS011;6344;49.932;8.308;2023-04-06T00:14:06;13.50;;;12.00;;
12556;SDS011;6344;49.932;8.308;2023-04-06T00:16:33;14.97;;;12.57;;
12556;SDS011;6344;49.932;8.308;2023-04-06T00:19:01;13.20;;;11.53;;
12556;SDS011;6344;49.932;8.308;2023-04-06T00:21:28;12.73;;;11.20;;
12556;SDS011;6344;49.932;8.308;2023-04-06T00:23:56;13.50;;;12.07;;
12556;SDS011;6344;49.932;8.308;2023-04-06T00:26:23;14.13;;;12.57;;
12556;SDS011;6344;49.932;8.308;2023-04-06T00:28:50;15.00;;;13.50;;
12556;SDS011;6344;49.932;8.308;2023-04-06T00:31:17;16.73;;;13.20;;
12556;SDS011;6344;49.932;8.308;2023-04-06T00:33:44;17.10;;;12.60;;
12556;SDS011;6344;49.932;8.308;2023-04-06T00:36:12;15.13;;;13.53;;
12556;SDS011;6344;49.932;8.308;2023-04-06T00:38:39;14.27;;;12.77;;
12556;SDS011;6344;49.932;8.308;2023-04-06T00:41:05;15.13;;;13.67;;
12556;SDS011;6344;49.932;8.308;2023-04-06T00:43:32;15.00;;;13.50;;
12556;SDS011;6344;49.932;8.308;2023-04-06T00:45:58;14.70;;;13.20;;
12556;SDS011;6344;49.932;8.308;2023-04-06T00:48:25;14.33;;;13.00;;
12556;SDS011;6344;49.932;8.308;2023-04-06T00:50:52;14.53;;;13.03;;
12556;SDS011;6344;49.932;8.308;2023-04-06T00:53:20;15.60;;;12.63;;
12556;SDS011;6344;49.932;8.308;2023-04-06T00:55:46;16.80;;;13.93;;
12556;SDS011;6344;49.932;8.308;2023-04-06T00:58:13;15.40;;;13.40;;
12556;SDS011;6344;49.932;8.308;2023-04-06T01:00:40;15.45;;;13.85;;
12556;SDS011;6344;49.932;8.308;2023-04-06T01:03:07;17.70;;;15.23;;
12556;SDS011;6344;49.932;8.308;2023-04-06T01:05:34;17.27;;;14.10;;
12556;SDS011;6344;49.932;8.308;2023-04-06T01:08:05;17.73;;;14.23;;
12556;SDS011;6344;49.932;8.308;2023-04-06T01:10:33;18.67;;;14.40;;
12556;SDS011;6344;49.932;8.308;2023-04-06T01:13:00;15.07;;;13.57;;
12556;SDS011;6344;49.932;8.308;2023-04-06T01:15:27;17.50;;;15.03;;
12556;SDS011;6344;49.932;8.308;2023-04-06T01:17:55;16.50;;;14.77;;
12556;SDS011;6344;49.932;8.308;2023-04-06T01:20:22;15.75;;;13.88;;
12556;SDS011;6344;49.932;8.308;2023-04-06T01:22:50;17.37;;;15.27;;
12556;SDS011;6344;49.932;8.308;2023-04-06T01:25:16;20.00;;;15.23;;
12556;SDS011;6344;49.932;8.308;2023-04-06T01:27:43;16.27;;;13.60;;
12556;SDS011;6344;49.932;8.308;2023-04-06T01:30:10;18.43;;;15.50;;
12556;SDS011;6344;49.932;8.308;2023-04-06T01:32:37;19.73;;;14.95;;
12556;SDS011;6344;49.932;8.308;2023-04-06T01:35:04;18.63;;;13.98;;
12556;SDS011;6344;49.932;8.308;2023-04-06T01:37:31;16.63;;;14.83;;
12556;SDS011;6344;49.932;8.308;2023-04-06T01:39:59;15.30;;;13.80;;
12556;SDS011;6344;49.932;8.308;2023-04-06T01:42:26;24.83;;;15.67;;
12556;SDS011;6344;49.932;8.308;2023-04-06T01:44:53;16.63;;;15.03;;
12556;SDS011;6344;49.932;8.308;2023-04-06T01:47:20;16.77;;;14.75;;
12556;SDS011;6344;49.932;8.308;2023-04-06T01:49:47;20.83;;;16.00;;
12556;SDS011;6344;49.932;8.308;2023-04-06T01:52:13;21.30;;;16.83;;
12556;SDS011;6344;49.932;8.308;2023-04-06T01:54:40;22.38;;;15.98;;
12556;SDS011;6344;49.932;8.308;2023-04-06T01:57:09;17.15;;;15.07;;
12556;SDS011;6344;49.932;8.308;2023-04-06T01:59:36;18.73;;;15.73;;
12556;SDS011;6344;49.932;8.308;2023-04-06T02:02:02;17.00;;;15.03;;
12556;SDS011;6344;49.932;8.308;2023-04-06T02:04:29;19.80;;;17.20;;
12556;SDS011;6344;49.932;8.308;2023-04-06T02:06:56;18.83;;;15.77;;
12556;SDS011;6344;49.932;8.308;2023-04-06T02:09:22;18.60;;;15.83;;
12556;SDS011;6344;49.932;8.308;2023-04-06T02:11:49;24.10;;;16.33;;
12556;SDS011;6344;49.932;8.308;2023-04-06T02:14:17;17.57;;;14.43;;
12556;SDS011;6344;49.932;8.308;2023-04-06T02:16:44;21.10;;;16.30;;
12556;SDS011;6344;49.932;8.308;2023-04-06T02:19:11;20.10;;;15.93;;
12556;SDS011;6344;49.932;8.308;2023-04-06T02:21:37;22.53;;;16.70;;
12556;SDS011;6344;49.932;8.308;2023-04-06T02:24:04;22.60;;;16.45;;
12556;SDS011;6344;49.932;8.308;2023-04-06T02:26:31;19.77;;;16.77;;
12556;SDS011;6344;49.932;8.308;2023-04-06T02:28:58;20.13;;;16.40;;
12556;SDS011;6344;49.932;8.308;2023-04-06T02:31:26;18.52;;;14.52;;
12556;SDS011;6344;49.932;8.308;2023-04-06T02:33:52;21.20;;;15.80;;
12556;SDS011;6344;49.932;8.308;2023-04-06T02:36:19;17.07;;;15.10;;
12556;SDS011;6344;49.932;8.308;2023-04-06T02:38:46;18.90;;;16.40;;
12556;SDS011;6344;49.932;8.308;2023-04-06T02:41:12;19.17;;;15.43;;
12556;SDS011;6344;49.932;8.308;2023-04-06T02:43:39;19.13;;;17.13;;
12556;SDS011;6344;49.932;8.308;2023-04-06T02:46:06;20.70;;;16.30;;
12556;SDS011;6344;49.932;8.308;2023-04-06T02:48:34;18.23;;;14.97;;
12556;SDS011;6344;49.932;8.308;2023-04-06T02:51:02;18.63;;;16.20;;
12556;SDS011;6344;49.932;8.308;2023-04-06T02:53:29;21.02;;;16.73;;
12556;SDS011;6344;49.932;8.308;2023-04-06T02:55:55;17.70;;;15.87;;
12556;SDS011;6344;49.932;8.308;2023-04-06T02:58:22;20.35;;;15.57;;
12556;SDS011;6344;49.932;8.308;2023-04-06T03:00:48;18.33;;;16.10;;
12556;SDS011;6344;49.932;8.308;2023-04-06T03:03:15;21.43;;;16.23;;
12556;SDS011;6344;49.932;8.308;2023-04-06T03:05:43;18.17;;;16.27;;
12556;SDS011;6344;49.932;8.308;2023-04-06T03:08:10;23.02;;;16.52;;
12556;SDS011;6344;49.932;8.308;2023-04-06T03:10:36;18.87;;;16.87;;
12556;SDS011;6344;49.932;8.308;2023-04-06T03:13:03;23.83;;;15.43;;
12556;SDS011;6344;49.932;8.308;2023-04-06T03:15:30;19.57;;;16.77;;
12556;SDS011;6344;49.932;8.308;2023-04-06T03:17:56;17.80;;;15.87;;
12556;SDS011;6344;49.932;8.308;2023-04-06T03:20:26;19.23;;;16.00;;
12556;SDS011;6344;49.932;8.308;2023-04-06T03:22:54;17.25;;;15.35;;
12556;SDS011;6344;49.932;8.308;2023-04-06T03:25:21;21.77;;;16.37;;
12556;SDS011;6344;49.932;8.308;2023-04-06T03:27:48;21.52;;;16.02;;
12556;SDS011;6344;49.932;8.308;2023-04-06T03:30:14;20.08;;;15.70;;
12556;SDS011;6344;49.932;8.308;2023-04-06T03:32:42;18.97;;;14.83;;
12556;SDS011;6344;49.932;8.308;2023-04-06T03:35:09;22.83;;;16.08;;
12556;SDS011;6344;49.932;8.308;2023-04-06T03:37:36;17.70;;;15.85;;
12556;SDS011;6344;49.932;8.308;2023-04-06T03:40:05;20.45;;;16.98;;
12556;SDS011;6344;49.932;8.308;2023-04-06T03:42:32;22.53;;;16.47;;
12556;SDS011;6344;49.932;8.308;2023-04-06T03:44:58;18.63;;;16.33;;
12556;SDS011;6344;49.932;8.308;2023-04-06T03:47:25;21.90;;;17.00;;
12556;SDS011;6344;49.932;8.308;2023-04-06T03:49:52;22.05;;;16.40;;
12556;SDS011;6344;49.932;8.308;2023-04-06T03:52:18;19.05;;;16.55;;
12556;SDS011;6344;49.932;8.308;2023-04-06T03:54:47;20.92;;;17.58;;
12556;SDS011;6344;49.932;8.308;2023-04-06T03:57:15;21.47;;;16.57;;
12556;SDS011;6344;49.932;8.308;2023-04-06T03:59:43;18.80;;;16.10;;
12556;SDS011;6344;49.932;8.308;2023-04-06T04:02:09;20.70;;;16.95;;
12556;SDS011;6344;49.932;8.308;2023-04-06T04:04:36;23.75;;;17.85;;
12556;SDS011;6344;49.932;8.308;2023-04-06T04:07:03;19.17;;;15.45;;
12556;SDS011;6344;49.932;8.308;2023-04-06T04:09:29;20.30;;;16.92;;
12556;SDS011;6344;49.932;8.308;2023-04-06T04:11:56;24.65;;;17.80;;
12556;SDS011;6344;49.932;8.308;2023-04-06T04:14:24;26.00;;;16.77;;
12556;SDS011;6344;49.932;8.308;2023-04-06T04:16:51;18.50;;;16.42;;
12556;SDS011;6344;49.932;8.308;2023-04-06T04:19:18;20.38;;;16.95;;
12556;SDS011;6344;49.932;8.308;2023-04-06T04:21:44;26.60;;;17.92;;
12556;SDS011;6344;49.932;8.308;2023-04-06T04:24:12;21.88;;;17.65;;
12556;SDS011;6344;49.932;8.308;2023-04-06T04:26:39;20.85;;;16.75;;
12556;SDS011;6344;49.932;8.308;2023-04-06T04:29:06;23.30;;;18.27;;
12556;SDS011;6344;49.932;8.308;2023-04-06T04:31:35;21.30;;;17.10;;
12556;SDS011;6344;49.932;8.308;2023-04-06T04:34:01;20.33;;;17.38;;
12556;SDS011;6344;49.932;8.308;2023-04-06T04:36:28;22.13;;;16.70;;
12556;SDS011;6344;49.932;8.308;2023-04-06T04:38:55;21.75;;;18.10;;
12556;SDS011;6344;49.932;8.308;2023-04-06T04:41:22;21.73;;;18.25;;
12556;SDS011;6344;49.932;8.308;2023-04-06T04:43:48;25.83;;;18.10;;
12556;SDS011;6344;49.932;8.308;2023-04-06T04:46:15;19.35;;;16.88;;
12556;SDS011;6344;49.932;8.308;2023-04-06T04:48:43;22.55;;;18.55;;
12556;SDS011;6344;49.932;8.308;2023-04-06T04:51:09;20.38;;;17.25;;
12556;SDS011;6344;49.932;8.308;2023-04-06T04:53:36;20.35;;;17.83;;
12556;SDS011;6344;49.932;8.308;2023-04-06T04:56:03;23.85;;;18.77;;
12556;SDS011;6344;49.932;8.308;2023-04-06T04:58:30;21.45;;;17.48;;
12556;SDS011;6344;49.932;8.308;2023-04-06T05:00:56;20.05;;;17.15;;
12556;SDS011;6344;49.932;8.308;2023-04-06T05:03:23;23.23;;;17.97;;
12556;SDS011;6344;49.932;8.308;2023-04-06T05:05:53;23.63;;;18.75;;
12556;SDS011;6344;49.932;8.308;2023-04-06T05:08:19;21.47;;;16.73;;
12556;SDS011;6344;49.932;8.308;2023-04-06T05:10:46;23.65;;;18.58;;
12556;SDS011;6344;49.932;8.308;2023-04-06T05:13:13;24.00;;;18.05;;
12556;SDS011;6344;49.932;8.308;2023-04-06T05:15:40;23.70;;;18.67;;
12556;SDS011;6344;49.932;8.308;2023-04-06T05:18:07;22.20;;;18.00;;
12556;SDS011;6344;49.932;8.308;2023-04-06T05:20:35;25.03;;;18.43;;
12556;SDS011;6344;49.932;8.308;2023-04-06T05:23:03;23.50;;;19.17;;
12556;SDS011;6344;49.932;8.308;2023-04-06T05:25:30;22.20;;;17.48;;
12556;SDS011;6344;49.932;8.308;2023-04-06T05:27:57;22.30;;;18.83;;
12556;SDS011;6344;49.932;8.308;2023-04-06T05:30:24;22.43;;;19.50;;
12556;SDS011;6344;49.932;8.308;2023-04-06T05:32:51;23.73;;;17.63;;
12556;SDS011;6344;49.932;8.308;2023-04-06T05:35:17;21.42;;;17.38;;
12556;SDS011;6344;49.932;8.308;2023-04-06T05:37:44;21.10;;;17.83;;
12556;SDS011;6344;49.932;8.308;2023-04-06T05:40:12;20.52;;;17.70;;
12556;SDS011;6344;49.932;8.308;2023-04-06T05:42:39;20.53;;;17.87;;
12556;SDS011;6344;49.932;8.308;2023-04-06T05:45:07;25.23;;;18.70;;
12556;SDS011;6344;49.932;8.308;2023-04-06T05:47:35;25.15;;;19.23;;
12556;SDS011;6344;49.932;8.308;2023-04-06T05:50:03;20.50;;;18.30;;
12556;SDS011;6344;49.932;8.308;2023-04-06T05:52:30;21.60;;;17.60;;
12556;SDS011;6344;49.932;8.308;2023-04-06T05:54:56;23.17;;;17.73;;
12556;SDS011;6344;49.932;8.308;2023-04-06T05:57:24;24.90;;;17.47;;
12556;SDS011;6344;49.932;8.308;2023-04-06T05:59:51;23.10;;;18.90;;
12556;SDS011;6344;49.932;8.308;2023-04-06T06:02:18;23.23;;;19.53;;
12556;SDS011;6344;49.932;8.308;2023-04-06T06:04:45;20.37;;;18.27;;
12556;SDS011;6344;49.932;8.308;2023-04-06T06:07:11;22.10;;;18.00;;
12556;SDS011;6344;49.932;8.308;2023-04-06T06:09:38;21.60;;;19.40;;
12556;SDS011;6344;49.932;8.308;2023-04-06T06:12:04;29.60;;;18.43;;
12556;SDS011;6344;49.932;8.308;2023-04-06T06:14:33;20.23;;;18.03;;
12556;SDS011;6344;49.932;8.308;2023-04-06T06:16:59;20.80;;;16.10;;
12556;SDS011;6344;49.932;8.308;2023-04-06T06:19:26;17.03;;;15.43;;
12556;SDS011;6344;49.932;8.308;2023-04-06T06:21:53;20.20;;;16.63;;
12556;SDS011;6344;49.932;8.308;2023-04-06T06:24:19;17.10;;;15.37;;
12556;SDS011;6344;49.932;8.308;2023-04-06T06:26:46;23.87;;;18.47;;
12556;SDS011;6344;49.932;8.308;2023-04-06T06:29:13;17.83;;;15.03;;
12556;SDS011;6344;49.932;8.308;2023-04-06T06:31:41;16.27;;;13.77;;
12556;SDS011;6344;49.932;8.308;2023-04-06T06:34:08;18.73;;;15.23;;
12556;SDS011;6344;49.932;8.308;2023-04-06T06:36:35;16.40;;;14.80;;
12556;SDS011;6344;49.932;8.308;2023-04-06T06:39:02;17.73;;;15.93;;
12556;SDS011;6344;49.932;8.308;2023-04-06T06:41:29;23.30;;;19.23;;
12556;SDS011;6344;49.932;8.308;2023-04-06T06:43:55;15.47;;;13.90;;
12556;SDS011;6344;49.932;8.308;2023-04-06T06:46:22;14.40;;;12.93;;
12556;SDS011;6344;49.932;8.308;2023-04-06T06:48:50;16.97;;;13.70;;
12556;SDS011;6344;49.932;8.308;2023-04-06T06:51:17;15.02;;;13.57;;
12556;SDS011;6344;49.932;8.308;2023-04-06T06:53:43;18.83;;;14.87;;
12556;SDS011;6344;49.932;8.308;2023-04-06T06:56:10;19.30;;;14.23;;
12556;SDS011;6344;49.932;8.308;2023-04-06T06:58:37;15.60;;;14.17;;
12556;SDS011;6344;49.932;8.308;2023-04-06T07:01:04;14.93;;;13.53;;
12556;SDS011;6344;49.932;8.308;2023-04-06T07:03:31;15.73;;;14.20;;
12556;SDS011;6344;49.932;8.308;2023-04-06T07:05:59;15.53;;;14.13;;
12556;SDS011;6344;49.932;8.308;2023-04-06T07:08:26;14.40;;;13.00;;
12556;SDS011;6344;49.932;8.308;2023-04-06T07:10:52;15.60;;;14.20;;
12556;SDS011;6344;49.932;8.308;2023-04-06T07:13:21;15.63;;;14.00;;
12556;SDS011;6344;49.932;8.308;2023-04-06T07:15:48;14.27;;;12.93;;
12556;SDS011;6344;49.932;8.308;2023-04-06T07:18:15;61.07;;;18.20;;
12556;SDS011;6344;49.932;8.308;2023-04-06T07:20:42;16.10;;;14.50;;
12556;SDS011;6344;49.932;8.308;2023-04-06T07:23:10;16.13;;;13.97;;
12556;SDS011;6344;49.932;8.308;2023-04-06T07:25:36;16.83;;;14.37;;
12556;SDS011;6344;49.932;8.308;2023-04-06T07:28:03;14.90;;;13.50;;
12556;SDS011;6344;49.932;8.308;2023-04-06T07:30:30;14.33;;;12.97;;
12556;SDS011;6344;49.932;8.308;2023-04-06T07:32:57;13.90;;;12.90;;
12556;SDS011;6344;49.932;8.308;2023-04-06T07:35:24;14.57;;;13.30;;
12556;SDS011;6344;49.932;8.308;2023-04-06T07:37:52;16.10;;;14.13;;
12556;SDS011;6344;49.932;8.308;2023-04-06T07:40:20;15.77;;;14.17;;
12556;SDS011;6344;49.932;8.308;2023-04-06T07:42:47;14.80;;;13.50;;
12556;SDS011;6344;49.932;8.308;2023-04-06T07:45:14;15.23;;;13.87;;
12556;SDS011;6344;49.932;8.308;2023-04-06T07:47:41;15.80;;;14.20;;
12556;SDS011;6344;49.932;8.308;2023-04-06T07:50:08;14.55;;;13.35;;
12556;SDS011;6344;49.932;8.308;2023-04-06T07:52:35;14.87;;;13.67;;
12556;SDS011;6344;49.932;8.308;2023-04-06T07:55:02;14.60;;;13.20;;
12556;SDS011;6344;49.932;8.308;2023-04-06T07:57:31;14.67;;;13.47;;
12556;SDS011;6344;49.932;8.308;2023-04-06T07:59:58;15.83;;;14.40;;
12556;SDS011;6344;49.932;8.308;2023-04-06T08:02:24;13.60;;;12.50;;
12556;SDS011;6344;49.932;8.308;2023-04-06T08:04:51;14.67;;;13.37;;
12556;SDS011;6344;49.932;8.308;2023-04-06T08:07:17;14.70;;;13.40;;
12556;SDS011;6344;49.932;8.308;2023-04-06T08:09:44;14.00;;;12.80;;
12556;SDS011;6344;49.932;8.308;2023-04-06T08:12:11;15.40;;;14.00;;
12556;SDS011;6344;49.932;8.308;2023-04-06T08:14:40;14.47;;;13.27;;
12556;SDS011;6344;49.932;8.308;2023-04-06T08:17:06;15.20;;;13.93;;
12556;SDS011;6344;49.932;8.308;2023-04-06T08:19:33;15.77;;;14.47;;
12556;SDS011;6344;49.932;8.308;2023-04-06T08:22:00;17.37;;;15.77;;
12556;SDS011;6344;49.932;8.308;2023-04-06T08:24:27;14.83;;;13.33;;
12556;SDS011;6344;49.932;8.308;2023-04-06T08:26:54;15.43;;;13.90;;
12556;SDS011;6344;49.932;8.308;2023-04-06T08:29:20;15.93;;;14.50;;
12556;SDS011;6344;49.932;8.308;2023-04-06T08:31:48;16.73;;;14.67;;
12556;SDS011;6344;49.932;8.308;2023-04-06T08:34:15;16.57;;;15.17;;
12556;SDS011;6344;49.932;8.308;2023-04-06T08:36:41;16.03;;;14.60;;
12556;SDS011;6344;49.932;8.308;2023-04-06T08:39:08;16.83;;;15.07;;
12556;SDS011;6344;49.932;8.308;2023-04-06T08:41:35;15.30;;;13.70;;
12556;SDS011;6344;49.932;8.308;2023-04-06T08:44:01;17.10;;;15.53;;
12556;SDS011;6344;49.932;8.308;2023-04-06T08:46:30;14.60;;;13.35;;
12556;SDS011;6344;49.932;8.308;2023-04-06T08:48:58;14.73;;;13.52;;
12556;SDS011;6344;49.932;8.308;2023-04-06T08:51:26;16.58;;;15.18;;
12556;SDS011;6344;49.932;8.308;2023-04-06T08:53:55;15.87;;;14.57;;
12556;SDS011;6344;49.932;8.308;2023-04-06T08:56:24;15.87;;;14.67;;
12556;SDS011;6344;49.932;8.308;2023-04-06T08:58:53;16.40;;;14.80;;
12556;SDS011;6344;49.932;8.308;2023-04-06T09:01:20;17.40;;;16.00;;
12556;SDS011;6344;49.932;8.308;2023-04-06T09:03:48;16.93;;;15.60;;
12556;SDS011;6344;49.932;8.308;2023-04-06T09:06:18;16.37;;;15.17;;
12556;SDS011;6344;49.932;8.308;2023-04-06T09:08:45;16.53;;;15.13;;
12556;SDS011;6344;49.932;8.308;2023-04-06T09:11:11;15.97;;;14.60;;
12556;SDS011;6344;49.932;8.308;2023-04-06T09:13:44;16.47;;;15.07;;
12556;SDS011;6344;49.932;8.308;2023-04-06T09:16:12;17.57;;;15.87;;
12556;SDS011;6344;49.932;8.308;2023-04-06T09:18:39;17.97;;;16.47;;
12556;SDS011;6344;49.932;8.308;2023-04-06T09:21:06;17.80;;;16.00;;
12556;SDS011;6344;49.932;8.308;2023-04-06T09:23:35;16.67;;;15.57;;
12556;SDS011;6344;49.932;8.308;2023-04-06T09:26:09;18.27;;;16.67;;
12556;SDS011;6344;49.932;8.308;2023-04-06T09:28:43;16.85;;;15.43;;
12556;SDS011;6344;49.932;8.308;2023-04-06T09:31:11;16.60;;;15.40;;
12556;SDS011;6344;49.932;8.308;2023-04-06T09:33:38;16.02;;;14.73;;
12556;SDS011;6344;49.932;8.308;2023-04-06T09:36:06;17.17;;;15.63;;
12556;SDS011;6344;49.932;8.308;2023-04-06T09:38:35;16.43;;;15.07;;
12556;SDS011;6344;49.932;8.308;2023-04-06T09:41:03;15.77;;;14.47;;
12556;SDS011;6344;49.932;8.308;2023-04-06T09:43:30;17.33;;;16.00;;
12556;SDS011;6344;49.932;8.308;2023-04-06T09:45:56;18.00;;;16.47;;
12556;SDS011;6344;49.932;8.308;2023-04-06T09:48:24;16.30;;;15.10;;
12556;SDS011;6344;49.932;8.308;2023-04-06T09:50:55;16.60;;;15.10;;
12556;SDS011;6344;49.932;8.308;2023-04-06T09:53:26;17.05;;;15.70;;
12556;SDS011;6344;49.932;8.308;2023-04-06T09:55:57;18.60;;;17.30;;
12556;SDS011;6344;49.932;8.308;2023-04-06T09:58:27;18.23;;;16.67;;
12556;SDS011;6344;49.932;8.308;2023-04-06T10:01:01;16.90;;;15.60;;
12556;SDS011;6344;49.932;8.308;2023-04-06T10:03:36;17.80;;;16.43;;
12556;SDS011;6344;49.932;8.308;2023-04-06T10:06:11;18.80;;;16.88;;
12556;SDS011;6344;49.932;8.308;2023-04-06T10:08:39;17.57;;;16.00;;
12556;SDS011;6344;49.932;8.308;2023-04-06T10:11:08;18.27;;;16.50;;
12556;SDS011;6344;49.932;8.308;2023-04-06T10:13:35;19.33;;;17.70;;
12556;SDS011;6344;49.932;8.308;2023-04-06T10:16:02;19.30;;;17.30;;
12556;SDS011;6344;49.932;8.308;2023-04-06T10:18:30;19.08;;;17.58;;
12556;SDS011;6344;49.932;8.308;2023-04-06T10:21:04;18.43;;;16.63;;
12556;SDS011;6344;49.932;8.308;2023-04-06T10:23:35;19.63;;;17.70;;
12556;SDS011;6344;49.932;8.308;2023-04-06T10:26:03;18.25;;;16.85;;
12556;SDS011;6344;49.932;8.308;2023-04-06T10:28:32;17.87;;;16.47;;
12556;SDS011;6344;49.932;8.308;2023-04-06T10:31:04;17.53;;;16.13;;
12556;SDS011;6344;49.932;8.308;2023-04-06T10:33:31;17.00;;;15.53;;
12556;SDS011;6344;49.932;8.308;2023-04-06T10:36:08;17.97;;;16.27;;
12556;SDS011;6344;49.932;8.308;2023-04-06T10:38:36;19.63;;;17.83;;
12556;SDS011;6344;49.932;8.308;2023-04-06T10:41:04;17.63;;;16.13;;
12556;SDS011;6344;49.932;8.308;2023-04-06T10:43:34;19.10;;;17.50;;
12556;SDS011;6344;49.932;8.308;2023-04-06T10:46:02;17.20;;;15.50;;
12556;SDS011;6344;49.932;8.308;2023-04-06T10:48:36;17.60;;;16.07;;
12556;SDS011;6344;49.932;8.308;2023-04-06T10:51:07;16.80;;;15.30;;
12556;SDS011;6344;49.932;8.308;2023-04-06T10:53:34;18.37;;;16.67;;
12556;SDS011;6344;49.932;8.308;2023-04-06T10:56:01;16.77;;;14.97;;
12556;SDS011;6344;49.932;8.308;2023-04-06T10:58:29;17.93;;;16.33;;
12556;SDS011;6344;49.932;8.308;2023-04-06T11:00:57;17.17;;;15.83;;
12556;SDS011;6344;49.932;8.308;2023-04-06T11:03:24;16.03;;;14.60;;
12556;SDS011;6344;49.932;8.308;2023-04-06T11:05:52;18.17;;;16.48;;
12556;SDS011;6344;49.932;8.308;2023-04-06T11:08:22;15.97;;;14.47;;
12556;SDS011;6344;49.932;8.308;2023-04-06T11:10:51;15.80;;;14.40;;
12556;SDS011;6344;49.932;8.308;2023-04-06T11:13:18;17.33;;;14.80;;
12556;SDS011;6344;49.932;8.308;2023-04-06T11:15:44;14.90;;;13.57;;
12556;SDS011;6344;49.932;8.308;2023-04-06T11:18:12;16.83;;;14.80;;
12556;SDS011;6344;49.932;8.308;2023-04-06T11:20:46;16.20;;;14.67;;
12556;SDS011;6344;49.932;8.308;2023-04-06T11:23:21;16.80;;;15.40;;
12556;SDS011;6344;49.932;8.308;2023-04-06T11:25:49;17.07;;;15.37;;
12556;SDS011;6344;49.932;8.308;2023-04-06T11:28:17;16.97;;;15.40;;
12556;SDS011;6344;49.932;8.308;2023-04-06T11:30:44;17.60;;;16.08;;
12556;SDS011;6344;49.932;8.308;2023-04-06T11:33:19;17.07;;;15.47;;
12556;SDS011;6344;49.932;8.308;2023-04-06T11:35:46;17.37;;;15.60;;
12556;SDS011;6344;49.932;8.308;2023-04-06T11:38:13;16.70;;;14.52;;
12556;SDS011;6344;49.932;8.308;2023-04-06T11:40:40;16.70;;;15.10;;
12556;SDS011;6344;49.932;8.308;2023-04-06T11:43:10;15.23;;;13.63;;
12556;SDS011;6344;49.932;8.308;2023-04-06T11:45:41;16.53;;;14.97;;
12556;SDS011;6344;49.932;8.308;2023-04-06T11:48:17;16.40;;;15.00;;
12556;SDS011;6344;49.932;8.308;2023-04-06T11:50:46;27.13;;;16.93;;
12556;SDS011;6344;49.932;8.308;2023-04-06T11:53:13;16.00;;;14.47;;
12556;SDS011;6344;49.932;8.308;2023-04-06T11:55:40;16.97;;;15.37;;
12556;SDS011;6344;49.932;8.308;2023-04-06T11:58:10;15.20;;;13.90;;
12556;SDS011;6344;49.932;8.308;2023-04-06T12:00:36;17.10;;;15.60;;
12556;SDS011;6344;49.932;8.308;2023-04-06T12:03:03;17.40;;;15.87;;
12556;SDS011;6344;49.932;8.308;2023-04-06T12:05:32;18.47;;;16.83;;
12556;SDS011;6344;49.932;8.308;2023-04-06T12:07:59;16.43;;;14.83;;
12556;SDS011;6344;49.932;8.308;2023-04-06T12:10:25;16.67;;;15.27;;
12556;SDS011;6344;49.932;8.308;2023-04-06T12:12:52;16.20;;;14.70;;
12556;SDS011;6344;49.932;8.308;2023-04-06T12:15:19;15.70;;;14.43;;
12556;SDS011;6344;49.932;8.308;2023-04-06T12:17:45;17.83;;;16.30;;
12556;SDS011;6344;49.932;8.308;2023-04-06T12:20:13;18.67;;;16.83;;
12556;SDS011;6344;49.932;8.308;2023-04-06T12:22:41;16.97;;;15.47;;
12556;SDS011;6344;49.932;8.308;2023-04-06T12:25:08;16.43;;;14.90;;
12556;SDS011;6344;49.932;8.308;2023-04-06T12:27:35;16.10;;;14.80;;
12556;SDS011;6344;49.932;8.308;2023-04-06T12:30:02;13.63;;;12.43;;
12556;SDS011;6344;49.932;8.308;2023-04-06T12:32:29;13.90;;;12.70;;
12556;SDS011;6344;49.932;8.308;2023-04-06T12:34:55;14.00;;;12.60;;
12556;SDS011;6344;49.932;8.308;2023-04-06T12:37:22;15.50;;;14.13;;
12556;SDS011;6344;49.932;8.308;2023-04-06T12:39:50;13.00;;;11.90;;
12556;SDS011;6344;49.932;8.308;2023-04-06T12:42:16;14.83;;;13.40;;
12556;SDS011;6344;49.932;8.308;2023-04-06T12:44:43;13.77;;;12.60;;
12556;SDS011;6344;49.932;8.308;2023-04-06T12:47:12;12.87;;;11.77;;
12556;SDS011;6344;49.932;8.308;2023-04-06T12:49:38;14.53;;;13.03;;
12556;SDS011;6344;49.932;8.308;2023-04-06T12:52:05;12.80;;;11.60;;
12556;SDS011;6344;49.932;8.308;2023-04-06T12:54:32;13.60;;;12.40;;
12556;SDS011;6344;49.932;8.308;2023-04-06T12:56:59;15.03;;;13.67;;
12556;SDS011;6344;49.932;8.308;2023-04-06T12:59:27;13.02;;;11.85;;
12556;SDS011;6344;49.932;8.308;2023-04-06T13:01:59;13.15;;;11.95;;
12556;SDS011;6344;49.932;8.308;2023-04-06T13:04:26;12.47;;;11.37;;
12556;SDS011;6344;49.932;8.308;2023-04-06T13:06:52;13.50;;;12.30;;
12556;SDS011;6344;49.932;8.308;2023-04-06T13:09:19;12.80;;;11.63;;
12556;SDS011;6344;49.932;8.308;2023-04-06T13:11:45;11.60;;;10.60;;
12556;SDS011;6344;49.932;8.308;2023-04-06T13:14:13;12.33;;;11.07;;
12556;SDS011;6344;49.932;8.308;2023-04-06T13:16:40;12.90;;;11.63;;
12556;SDS011;6344;49.932;8.308;2023-04-06T13:19:07;11.97;;;10.93;;
12556;SDS011;6344;49.932;8.308;2023-04-06T13:21:35;12.53;;;10.37;;
12556;SDS011;6344;49.932;8.308;2023-04-06T13:24:02;12.17;;;11.17;;
12556;SDS011;6344;49.932;8.308;2023-04-06T13:26:30;12.23;;;11.10;;
12556;SDS011;6344;49.932;8.308;2023-04-06T13:28:56;13.20;;;11.90;;
12556;SDS011;6344;49.932;8.308;2023-04-06T13:31:24;12.40;;;11.40;;
12556;SDS011;6344;49.932;8.308;2023-04-06T13:33:51;13.02;;;11.82;;
12556;SDS011;6344;49.932;8.308;2023-04-06T13:36:18;12.10;;;10.82;;
12556;SDS011;6344;49.932;8.308;2023-04-06T13:38:45;11.73;;;10.75;;
12556;SDS011;6344;49.932;8.308;2023-04-06T13:41:17;12.40;;;11.40;;
12556;SDS011;6344;49.932;8.308;2023-04-06T13:43:45;11.90;;;10.80;;
12556;SDS011;6344;49.932;8.308;2023-04-06T13:46:12;10.60;;;9.60;;
12556;SDS011;6344;49.932;8.308;2023-04-06T13:48:40;11.60;;;10.40;;
12556;SDS011;6344;49.932;8.308;2023-04-06T13:51:10;10.70;;;9.90;;
12556;SDS011;6344;49.932;8.308;2023-04-06T13:53:37;11.37;;;10.33;;
12556;SDS011;6344;49.932;8.308;2023-04-06T13:56:04;12.30;;;10.98;;
12556;SDS011;6344;49.932;8.308;2023-04-06T13:58:32;10.70;;;9.67;;
12556;SDS011;6344;49.932;8.308;2023-04-06T14:01:01;11.17;;;10.17;;
12556;SDS011;6344;49.932;8.308;2023-04-06T14:03:28;10.80;;;9.90;;
12556;SDS011;6344;49.932;8.308;2023-04-06T14:05:57;11.93;;;9.67;;
12556;SDS011;6344;49.932;8.308;2023-04-06T14:08:24;11.60;;;10.70;;
12556;SDS011;6344;49.932;8.308;2023-04-06T14:10:51;11.50;;;10.17;;
12556;SDS011;6344;49.932;8.308;2023-04-06T14:13:19;10.98;;;10.18;;
12556;SDS011;6344;49.932;8.308;2023-04-06T14:15:45;10.83;;;9.73;;
12556;SDS011;6344;49.932;8.308;2023-04-06T14:18:12;11.47;;;10.13;;
12556;SDS011;6344;49.932;8.308;2023-04-06T14:20:38;11.17;;;10.27;;
12556;SDS011;6344;49.932;8.308;2023-04-06T14:23:06;12.03;;;11.00;;
12556;SDS011;6344;49.932;8.308;2023-04-06T14:25:33;11.03;;;10.10;;
12556;SDS011;6344;49.932;8.308;2023-04-06T14:28:00;10.70;;;9.70;;
12556;SDS011;6344;49.932;8.308;2023-04-06T14:30:27;9.37;;;8.30;;
12556;SDS011;6344;49.932;8.308;2023-04-06T14:32:56;7.97;;;7.37;;
12556;SDS011;6344;49.932;8.308;2023-04-06T14:35:23;8.13;;;7.47;;
12556;SDS011;6344;49.932;8.308;2023-04-06T14:37:50;8.70;;;6.83;;